Time;durP1;ratioP1;P1;durP2;ratioP2;P2;SDS_P1;SDS_P2;PMS_P1;PMS_P2;Temp;Humidity;BMP_temperature;BMP_pressure;BME280_temperature;BME280_humidity;BME280_pressure;Samples;Min_cycle;Max_cycle;Signal;HPM_P1;HPM_P2
2023/02/05 00:02:07;;;;;;;9.13;7.23;;;5.10;96.70;;;;;;5049985;28;20392;-85
2023/02/05 00:04:34;;;;;;;10.27;6.30;;;5.10;98.00;;;;;;5043994;28;20261;-86
2023/02/05 00:07:00;;;;;;;10.00;6.60;;;5.20;99.20;;;;;;5047573;28;20563;-84
2023/02/05 00:09:27;;;;;;;9.27;6.87;;;5.20;98.90;;;;;;5046406;28;20188;-85
2023/02/05 00:11:54;;;;;;;11.03;7.10;;;5.30;98.30;;;;;;5045357;28;20824;-84
2023/02/05 00:14:20;;;;;;;8.43;7.30;;;5.40;98.10;;;;;;5032482;28;20186;-83
2023/02/05 00:16:46;;;;;;;10.57;6.50;;;5.50;97.80;;;;;;5025597;28;20173;-84
2023/02/05 00:19:11;;;;;;;10.37;7.03;;;5.50;97.50;;;;;;5025062;28;20178;-84
2023/02/05 00:21:37;;;;;;;9.33;7.23;;;5.50;96.80;;;;;;5037780;28;20231;-85
2023/02/05 00:24:03;;;;;;;8.53;6.80;;;5.50;96.60;;;;;;5046170;28;20209;-85
2023/02/05 00:26:29;;;;;;;20.37;7.87;;;5.50;97.00;;;;;;5046428;28;20181;-85
2023/02/05 00:28:55;;;;;;;10.17;8.33;;;5.40;96.00;;;;;;5047384;28;20268;-84
2023/02/05 00:31:22;;;;;;;9.17;7.50;;;5.40;95.70;;;;;;5046434;28;20231;-85
2023/02/05 00:33:50;;;;;;;12.03;7.33;;;5.40;96.20;;;;;;5048239;28;20563;-86
2023/02/05 00:36:17;;;;;;;8.83;6.87;;;5.20;98.10;;;;;;5047099;28;20177;-84
2023/02/05 00:38:44;;;;;;;8.67;6.90;;;5.20;98.50;;;;;;5048365;28;20615;-85
2023/02/05 00:41:10;;;;;;;10.87;7.37;;;5.30;98.50;;;;;;5047014;28;20205;-85
2023/02/05 00:43:37;;;;;;;12.87;7.97;;;5.30;98.20;;;;;;5046288;28;20188;-85
2023/02/05 00:46:03;;;;;;;11.90;8.43;;;5.40;98.60;;;;;;5040251;28;20189;-85
2023/02/05 00:48:29;;;;;;;11.90;9.23;;;5.50;98.20;;;;;;5040074;28;20258;-85
2023/02/05 00:50:55;;;;;;;10.77;8.23;;;5.40;97.80;;;;;;5038012;28;20220;-85
2023/02/05 00:53:22;;;;;;;13.07;8.80;;;5.40;98.40;;;;;;5037959;28;20227;-85
2023/02/05 00:55:48;;;;;;;11.10;9.27;;;5.50;98.60;;;;;;5019589;28;20181;-85
2023/02/05 00:58:14;;;;;;;11.40;8.57;;;5.50;98.10;;;;;;5018859;28;20190;-85
2023/02/05 01:00:40;;;;;;;9.77;7.70;;;5.60;97.00;;;;;;5019896;28;20209;-85
2023/02/05 01:03:06;;;;;;;10.13;7.97;;;5.50;96.70;;;;;;5032353;28;20199;-85
2023/02/05 01:05:34;;;;;;;9.60;7.53;;;5.50;97.60;;;;;;5017661;28;20209;-84
2023/02/05 01:08:04;;;;;;;9.80;8.37;;;5.50;97.70;;;;;;5018487;28;20659;-86
2023/02/05 01:10:30;;;;;;;11.47;8.77;;;5.50;97.40;;;;;;5019315;28;20201;-85
2023/02/05 01:12:56;;;;;;;10.97;7.93;;;5.50;97.40;;;;;;5020267;28;20212;-85
2023/02/05 01:15:22;;;;;;;11.83;7.77;;;5.50;97.90;;;;;;5037690;28;20177;-86
2023/02/05 01:17:47;;;;;;;10.57;7.70;;;5.60;98.00;;;;;;5037543;28;20189;-85
2023/02/05 01:20:14;;;;;;;10.83;8.20;;;5.50;98.00;;;;;;5038055;28;20516;-85
2023/02/05 01:22:40;;;;;;;10.70;7.53;;;5.60;98.00;;;;;;5038128;28;20195;-85
2023/02/05 01:25:07;;;;;;;11.43;7.70;;;5.60;97.50;;;;;;5038352;28;20192;-85
2023/02/05 01:27:33;;;;;;;13.30;8.17;;;5.60;97.50;;;;;;5040250;28;20205;-84
2023/02/05 01:29:59;;;;;;;9.40;8.03;;;5.70;97.50;;;;;;5039474;28;20196;-86
2023/02/05 01:32:26;;;;;;;13.30;8.73;;;5.70;97.00;;;;;;5039852;28;20203;-85
2023/02/05 01:34:52;;;;;;;12.47;8.50;;;5.60;97.70;;;;;;5039535;28;20665;-85
2023/02/05 01:37:17;;;;;;;8.90;7.83;;;5.60;95.90;;;;;;5039731;28;20173;-85
2023/02/05 01:39:43;;;;;;;10.70;8.10;;;5.40;96.00;;;;;;5040083;28;20201;-84
2023/02/05 01:42:26;;;;;;;12.77;7.77;;;5.10;96.90;;;;;;5039803;28;20177;-84
2023/02/05 01:45:20;;;;;;;11.43;8.27;;;5.00;98.40;;;;;;5038441;28;20771;-85
2023/02/05 01:47:46;;;;;;;9.83;7.47;;;4.90;99.70;;;;;;5040162;28;20211;-85
2023/02/05 01:50:12;;;;;;;11.43;8.03;;;4.90;99.90;;;;;;5031941;28;20200;-85
2023/02/05 01:52:38;;;;;;;11.87;7.87;;;4.80;99.90;;;;;;5038943;28;20212;-85
2023/02/05 01:55:06;;;;;;;10.23;7.67;;;4.90;99.90;;;;;;5038128;28;20181;-85
2023/02/05 01:57:32;;;;;;;10.50;7.47;;;4.90;99.90;;;;;;5037958;28;20189;-84
2023/02/05 01:59:58;;;;;;;12.73;8.30;;;4.90;99.90;;;;;;5038495;28;20369;-85
2023/02/05 02:02:25;;;;;;;15.73;8.87;;;4.90;99.90;;;;;;5029180;28;20198;-85
2023/02/05 02:04:54;;;;;;;9.83;8.03;;;4.80;98.60;;;;;;5031745;28;20243;-83
2023/02/05 02:07:22;;;;;;;11.73;7.90;;;4.40;99.90;;;;;;5040255;28;20254;-86
2023/02/05 02:09:48;;;;;;;13.13;8.73;;;4.60;99.90;;;;;;5040737;28;20201;-83
2023/02/05 02:12:19;;;;;;;8.33;7.47;;;4.60;99.90;;;;;;5042100;28;20188;-82
2023/02/05 02:14:49;;;;;;;10.93;8.90;;;4.70;99.90;;;;;;5054307;28;20232;-87
2023/02/05 02:17:17;;;;;;;9.07;8.17;;;4.70;99.90;;;;;;5048280;28;20203;-85
2023/02/05 02:19:55;;;;;;;12.43;8.03;;;4.60;99.90;;;;;;5046718;28;20672;-84
2023/02/05 02:22:45;;;;;;;9.33;8.33;;;4.70;99.90;;;;;;5043875;28;20177;-83
2023/02/05 02:25:25;;;;;;;12.43;8.83;;;4.80;99.90;;;;;;5034388;28;20227;-83
2023/02/05 02:28:11;;;;;;;12.33;8.93;;;4.90;99.90;;;;;;5034161;28;20203;-83
2023/02/05 02:30:42;;;;;;;11.83;8.27;;;4.90;99.90;;;;;;5034286;28;20207;-83
2023/02/05 02:33:27;;;;;;;11.77;8.13;;;4.80;99.90;;;;;;5035059;28;20196;-84
2023/02/05 02:36:05;;;;;;;11.03;8.90;;;4.70;99.90;;;;;;5035135;28;20187;-82
2023/02/05 02:39:03;;;;;;;11.77;8.60;;;4.70;99.90;;;;;;5033468;28;20204;-86
2023/02/05 02:41:37;;;;;;;10.67;8.43;;;4.80;99.90;;;;;;5011449;28;20213;-82
2023/02/05 02:44:14;;;;;;;11.80;8.33;;;4.90;99.90;;;;;;5035280;28;20201;-84
2023/02/05 02:46:45;;;;;;;10.70;8.90;;;5.10;99.90;;;;;;5031211;28;20218;-84
2023/02/05 02:49:18;;;;;;;11.57;8.13;;;5.00;99.90;;;;;;5039034;28;20234;-83
2023/02/05 02:51:45;;;;;;;14.17;8.87;;;5.00;99.90;;;;;;5039328;28;20205;-84
2023/02/05 02:54:15;;;;;;;10.83;8.53;;;5.00;99.90;;;;;;5038716;28;20177;-84
2023/02/05 02:56:42;;;;;;;13.33;9.60;;;5.10;99.90;;;;;;5038348;28;20582;-84
2023/02/05 02:59:13;;;;;;;11.07;8.77;;;5.10;99.90;;;;;;5038058;28;20547;-84
2023/02/05 03:01:41;;;;;;;11.40;8.67;;;5.00;99.90;;;;;;5036291;28;20207;-85
2023/02/05 03:04:35;;;;;;;10.37;8.67;;;4.80;99.90;;;;;;5022308;28;20204;-87
2023/02/05 03:07:19;;;;;;;10.63;9.00;;;4.70;99.90;;;;;;5035908;28;20232;-84
2023/02/05 03:09:51;;;;;;;14.27;9.90;;;4.70;99.90;;;;;;5037374;28;20200;-85
2023/02/05 03:12:19;;;;;;;14.53;10.10;;;4.60;99.90;;;;;;5036210;28;20172;-84
2023/02/05 03:14:45;;;;;;;11.63;10.10;;;4.30;99.90;;;;;;5017578;28;20250;-84
2023/02/05 03:17:17;;;;;;;14.17;11.00;;;4.20;99.90;;;;;;5016170;28;20201;-84
2023/02/05 03:19:44;;;;;;;12.97;10.30;;;4.00;99.90;;;;;;5018023;28;20197;-83
2023/02/05 03:22:10;;;;;;;12.90;9.87;;;3.90;99.90;;;;;;5033053;28;20184;-84
2023/02/05 03:24:36;;;;;;;14.13;9.80;;;4.20;99.90;;;;;;5036780;28;20188;-84
2023/02/05 03:27:02;;;;;;;11.43;9.17;;;4.50;99.90;;;;;;5036583;28;20231;-85
2023/02/05 03:29:35;;;;;;;13.03;9.57;;;4.60;99.90;;;;;;5037403;28;20188;-85
2023/02/05 03:32:55;;;;;;;15.97;10.27;;;4.80;99.90;;;;;;5036725;28;20181;-84
2023/02/05 03:35:29;;;;;;;16.47;9.83;;;4.90;99.90;;;;;;4956663;29;20215;-84
2023/02/05 03:38:21;;;;;;;11.37;9.87;;;5.00;99.90;;;;;;5025869;28;20199;-85
2023/02/05 03:40:53;;;;;;;15.00;9.67;;;4.90;99.90;;;;;;5032318;28;20210;-84
2023/02/05 03:43:24;;;;;;;13.00;10.37;;;4.80;99.90;;;;;;5035966;28;20270;-84
2023/02/05 03:45:52;;;;;;;12.13;10.07;;;4.80;99.90;;;;;;5038136;28;20204;-85
2023/02/05 03:48:22;;;;;;;12.43;10.10;;;4.80;99.90;;;;;;5041536;28;20204;-85
2023/02/05 03:51:11;;;;;;;11.87;8.53;;;4.90;99.90;;;;;;5042813;28;20197;-85
2023/02/05 03:53:58;;;;;;;11.57;8.47;;;5.10;99.90;;;;;;5041604;28;20157;-85
2023/02/05 03:56:34;;;;;;;11.13;8.47;;;5.10;99.90;;;;;;5040593;28;20161;-85
2023/02/05 03:59:02;;;;;;;9.20;8.30;;;5.00;99.90;;;;;;5040588;28;20294;-85
2023/02/05 04:01:28;;;;;;;12.27;8.97;;;5.10;99.90;;;;;;5039745;28;20256;-85
2023/02/05 04:03:54;;;;;;;11.60;9.03;;;5.20;99.90;;;;;;5020645;28;20189;-84
2023/02/05 04:06:20;;;;;;;10.63;9.33;;;5.30;99.90;;;;;;5019796;28;20177;-86
2023/02/05 04:08:45;;;;;;;13.63;10.00;;;5.20;99.90;;;;;;5020919;28;20294;-85
2023/02/05 04:11:12;;;;;;;14.37;10.47;;;5.00;99.90;;;;;;5019822;28;20193;-85
2023/02/05 04:13:38;;;;;;;15.03;9.70;;;4.80;99.90;;;;;;5029254;28;20177;-84
2023/02/05 04:16:03;;;;;;;13.10;9.77;;;4.50;99.90;;;;;;5042832;28;20169;-84
2023/02/05 04:18:29;;;;;;;13.97;9.70;;;4.40;99.90;;;;;;5043244;28;20248;-84
2023/02/05 04:20:55;;;;;;;9.87;8.77;;;4.50;99.90;;;;;;5041945;28;20200;-84
2023/02/05 04:23:20;;;;;;;11.27;9.20;;;4.60;99.90;;;;;;5042431;28;20188;-85
2023/02/05 04:25:50;;;;;;;11.77;9.37;;;4.80;99.90;;;;;;5042453;28;20185;-84
2023/02/05 04:28:16;;;;;;;10.33;8.93;;;4.70;99.90;;;;;;5042005;28;20236;-84
2023/02/05 04:30:42;;;;;;;12.07;8.60;;;4.60;99.90;;;;;;5042157;28;20212;-85
2023/02/05 04:33:07;;;;;;;10.97;8.60;;;4.70;99.90;;;;;;5042575;28;20597;-84
2023/02/05 04:35:33;;;;;;;9.97;8.90;;;4.70;99.90;;;;;;5041865;28;20174;-84
2023/02/05 04:37:58;;;;;;;11.27;9.27;;;4.80;99.90;;;;;;5035634;28;20216;-84
2023/02/05 04:40:24;;;;;;;12.03;9.30;;;4.80;99.90;;;;;;5022066;28;20233;-85
2023/02/05 04:42:49;;;;;;;10.20;8.77;;;4.90;99.90;;;;;;5022650;28;20196;-86
2023/02/05 04:45:15;;;;;;;11.33;8.87;;;4.90;99.90;;;;;;5022608;28;20261;-85
2023/02/05 04:47:41;;;;;;;12.17;9.90;;;5.00;99.90;;;;;;5022840;28;20806;-84
2023/02/05 04:50:07;;;;;;;12.53;9.03;;;5.00;99.90;;;;;;5020926;28;20200;-85
2023/02/05 04:52:32;;;;;;;10.77;8.67;;;5.10;99.90;;;;;;5019631;28;20200;-85
2023/02/05 04:54:58;;;;;;;11.33;9.53;;;5.00;99.90;;;;;;5020467;28;20185;-85
2023/02/05 04:57:23;;;;;;;12.33;9.33;;;5.00;99.90;;;;;;5020524;28;20269;-84
2023/02/05 04:59:49;;;;;;;9.87;8.83;;;5.00;99.90;;;;;;5019115;28;20197;-85
2023/02/05 05:02:15;;;;;;;10.70;8.37;;;4.90;99.90;;;;;;5025133;28;20201;-85
2023/02/05 05:04:41;;;;;;;11.73;8.93;;;5.00;99.90;;;;;;5027029;28;20189;-85
2023/02/05 05:07:08;;;;;;;13.83;8.80;;;5.00;99.90;;;;;;5020208;28;20769;-86
2023/02/05 05:09:35;;;;;;;9.27;8.37;;;4.90;99.90;;;;;;5020948;28;20198;-86
2023/02/05 05:12:01;;;;;;;12.23;8.27;;;4.70;99.90;;;;;;5021360;28;20173;-85
2023/02/05 05:14:27;;;;;;;11.13;8.63;;;4.80;99.90;;;;;;5036232;28;20192;-86
2023/02/05 05:16:53;;;;;;;11.67;7.90;;;4.80;99.90;;;;;;5041292;28;20184;-85
2023/02/05 05:19:18;;;;;;;10.50;8.57;;;4.80;99.90;;;;;;5041977;28;20192;-85
2023/02/05 05:21:44;;;;;;;11.93;8.13;;;4.90;99.90;;;;;;5036545;28;20205;-85
2023/02/05 05:24:09;;;;;;;10.30;7.97;;;5.00;99.90;;;;;;5022549;28;20201;-85
2023/02/05 05:26:36;;;;;;;11.17;7.93;;;5.10;99.90;;;;;;5022358;28;20249;-85
2023/02/05 05:29:05;;;;;;;13.53;8.77;;;5.10;99.90;;;;;;5022755;28;20854;-85
2023/02/05 05:31:30;;;;;;;9.77;8.07;;;5.10;99.90;;;;;;5022616;28;20337;-84
2023/02/05 05:33:56;;;;;;;9.93;8.03;;;5.10;99.90;;;;;;5034280;28;20196;-86
2023/02/05 05:36:21;;;;;;;10.70;8.30;;;5.10;99.90;;;;;;5039362;28;20201;-85
2023/02/05 05:38:47;;;;;;;10.43;9.33;;;4.80;99.90;;;;;;5041484;28;20810;-85
2023/02/05 05:44:04;;;;;;;13.07;9.97;;;4.30;99.90;;;;;;5039808;28;20265;-86
2023/02/05 05:46:30;;;;;;;11.20;9.40;;;4.20;99.90;;;;;;5039971;28;20208;-84
2023/02/05 05:48:57;;;;;;;11.97;9.03;;;4.10;99.90;;;;;;5038028;28;20197;-85
2023/02/05 05:51:25;;;;;;;14.40;8.90;;;4.30;99.90;;;;;;5037520;28;20224;-84
2023/02/05 05:53:51;;;;;;;14.57;9.33;;;4.50;99.90;;;;;;5038341;28;20180;-85
2023/02/05 05:56:17;;;;;;;10.90;8.03;;;4.50;99.90;;;;;;5039660;28;20169;-85
2023/02/05 05:58:44;;;;;;;11.87;8.80;;;4.40;99.90;;;;;;5038160;28;20185;-86
2023/02/05 06:01:11;;;;;;;13.37;9.60;;;4.30;99.90;;;;;;5037743;28;20196;-86
2023/02/05 06:03:36;;;;;;;12.97;9.20;;;4.30;99.90;;;;;;5020172;28;20193;-85
2023/02/05 06:06:03;;;;;;;14.40;9.77;;;4.30;99.90;;;;;;5017873;28;20284;-86
2023/02/05 06:08:30;;;;;;;11.33;9.60;;;4.20;99.90;;;;;;5020884;28;20201;-86
2023/02/05 06:10:56;;;;;;;14.53;10.00;;;4.20;99.90;;;;;;5020023;28;20576;-85
2023/02/05 06:13:22;;;;;;;13.53;9.00;;;4.10;99.90;;;;;;5025933;28;20188;-86
2023/02/05 06:15:47;;;;;;;12.33;9.37;;;4.10;99.90;;;;;;5040145;28;20179;-86
2023/02/05 06:18:14;;;;;;;13.60;9.40;;;4.10;99.90;;;;;;5039968;28;20181;-85
2023/02/05 06:20:40;;;;;;;15.53;10.17;;;3.90;99.90;;;;;;5040392;28;20209;-86
2023/02/05 06:23:05;;;;;;;18.20;10.10;;;4.00;99.90;;;;;;5041716;28;20195;-84
2023/02/05 06:25:31;;;;;;;14.07;9.63;;;3.90;99.90;;;;;;5041042;28;20264;-85
2023/02/05 06:27:56;;;;;;;12.80;9.50;;;4.00;99.90;;;;;;5040586;28;20227;-85
2023/02/05 06:30:22;;;;;;;15.07;10.90;;;3.80;99.90;;;;;;5031164;28;20264;-84
2023/02/05 06:32:48;;;;;;;12.60;9.50;;;3.80;99.90;;;;;;5020507;28;20419;-83
2023/02/05 06:35:14;;;;;;;17.03;10.20;;;3.90;99.90;;;;;;5021698;28;20811;-85
2023/02/05 06:37:39;;;;;;;14.13;10.73;;;3.70;99.90;;;;;;5021788;28;20182;-85
2023/02/05 06:40:05;;;;;;;14.77;11.53;;;3.70;99.90;;;;;;5021587;28;20237;-85
2023/02/05 06:42:31;;;;;;;12.97;11.47;;;3.70;99.90;;;;;;5021304;28;20193;-85
2023/02/05 06:44:57;;;;;;;12.23;10.93;;;3.70;99.90;;;;;;5019889;28;20177;-86
2023/02/05 06:47:22;;;;;;;13.63;10.43;;;3.70;99.90;;;;;;5020154;28;20219;-85
2023/02/05 06:49:48;;;;;;;20.20;12.40;;;3.70;99.90;;;;;;5019413;28;20193;-85
2023/02/05 06:52:13;;;;;;;17.00;11.40;;;3.70;99.90;;;;;;5017885;28;20177;-85
2023/02/05 06:54:40;;;;;;;17.53;11.83;;;3.60;99.90;;;;;;5017887;28;20185;-83
2023/02/05 06:57:05;;;;;;;16.17;12.07;;;3.60;99.90;;;;;;5018663;28;20193;-85
2023/02/05 06:59:31;;;;;;;18.20;11.90;;;3.70;99.90;;;;;;5019671;28;20189;-84
2023/02/05 07:01:57;;;;;;;14.47;11.73;;;3.80;99.90;;;;;;5023530;28;20238;-84
2023/02/05 07:04:22;;;;;;;17.93;13.13;;;3.70;99.90;;;;;;5031883;28;20178;-85
2023/02/05 07:06:48;;;;;;;20.10;13.27;;;3.70;99.90;;;;;;5021392;28;20181;-85
2023/02/05 07:09:13;;;;;;;19.77;14.63;;;3.70;99.90;;;;;;5020757;28;20182;-85
2023/02/05 07:11:39;;;;;;;19.37;13.10;;;3.70;99.90;;;;;;5022213;28;20331;-85
2023/02/05 07:14:05;;;;;;;16.37;12.30;;;3.70;99.90;;;;;;5021765;28;20177;-83
2023/02/05 07:16:31;;;;;;;19.00;13.20;;;3.70;99.90;;;;;;5021190;28;20646;-86
2023/02/05 07:18:57;;;;;;;18.53;14.47;;;3.60;99.90;;;;;;5022241;28;20204;-85
2023/02/05 07:21:23;;;;;;;17.03;12.97;;;3.60;99.90;;;;;;5032078;28;20217;-84
2023/02/05 07:23:49;;;;;;;20.00;12.93;;;3.50;99.90;;;;;;5045108;28;20191;-85
2023/02/05 07:26:16;;;;;;;25.23;12.60;;;3.50;99.90;;;;;;5036233;28;20224;-85
2023/02/05 07:28:43;;;;;;;17.67;11.27;;;3.50;99.90;;;;;;5043627;28;20231;-85
2023/02/05 07:31:11;;;;;;;14.47;10.73;;;3.40;99.90;;;;;;5044911;28;20193;-85
2023/02/05 07:33:37;;;;;;;15.60;11.77;;;3.50;99.90;;;;;;5045276;28;20380;-85
2023/02/05 07:36:07;;;;;;;11.83;9.73;;;3.50;99.90;;;;;;5045853;28;20169;-84
2023/02/05 07:38:34;;;;;;;19.10;11.33;;;3.50;99.90;;;;;;5045113;28;20256;-84
2023/02/05 07:41:04;;;;;;;16.77;10.23;;;3.50;99.90;;;;;;5042146;28;20784;-85
2023/02/05 07:43:31;;;;;;;18.87;10.47;;;3.60;99.90;;;;;;5043375;28;20200;-83
2023/02/05 07:46:06;;;;;;;15.67;10.60;;;3.60;99.90;;;;;;5040923;28;20219;-84
2023/02/05 07:48:32;;;;;;;13.37;10.23;;;3.60;99.90;;;;;;5041475;28;20713;-83
2023/02/05 07:50:58;;;;;;;14.87;9.83;;;3.60;99.90;;;;;;5041399;28;20192;-85
2023/02/05 07:53:24;;;;;;;18.03;10.37;;;3.60;99.90;;;;;;5041854;28;20169;-83
2023/02/05 07:55:50;;;;;;;14.47;10.67;;;3.60;99.90;;;;;;5041103;28;20173;-84
2023/02/05 07:58:16;;;;;;;15.90;9.70;;;3.60;99.90;;;;;;5043463;28;20165;-86
2023/02/05 08:00:41;;;;;;;17.07;10.70;;;3.80;99.90;;;;;;5047591;28;20204;-86
2023/02/05 08:03:08;;;;;;;15.47;10.33;;;3.70;99.90;;;;;;5031306;28;20208;-84
2023/02/05 08:05:36;;;;;;;12.57;9.00;;;3.70;99.90;;;;;;5043172;28;20220;-84
2023/02/05 08:08:02;;;;;;;14.93;10.50;;;3.80;99.90;;;;;;5032179;28;20201;-85
2023/02/05 08:10:28;;;;;;;14.27;10.33;;;3.70;99.90;;;;;;5044556;28;20225;-84
2023/02/05 08:12:54;;;;;;;14.17;10.53;;;3.70;99.90;;;;;;5045851;28;20180;-85
2023/02/05 08:15:20;;;;;;;16.37;10.00;;;3.80;99.90;;;;;;5056273;28;20181;-86
2023/02/05 08:17:45;;;;;;;14.43;9.13;;;3.70;99.90;;;;;;5047186;28;20304;-86
2023/02/05 08:20:12;;;;;;;18.07;9.83;;;3.70;99.90;;;;;;5045237;28;20220;-85
2023/02/05 08:22:39;;;;;;;14.53;10.63;;;3.70;99.90;;;;;;5041847;28;20246;-85
2023/02/05 08:25:07;;;;;;;16.13;10.90;;;3.70;99.90;;;;;;5036510;28;20177;-84
2023/02/05 08:27:34;;;;;;;13.53;9.13;;;3.70;99.90;;;;;;5041750;28;20213;-84
2023/02/05 08:30:00;;;;;;;14.83;9.60;;;3.70;99.90;;;;;;5040736;28;20655;-84
2023/02/05 08:32:25;;;;;;;10.77;8.93;;;3.80;99.90;;;;;;5040216;28;20173;-84
2023/02/05 08:34:51;;;;;;;9.30;8.30;;;3.80;99.90;;;;;;5039622;28;20512;-84
2023/02/05 08:37:16;;;;;;;10.87;8.30;;;3.80;99.90;;;;;;5039685;28;20265;-84
2023/02/05 08:39:42;;;;;;;13.50;8.27;;;3.90;99.90;;;;;;5040239;28;20204;-86
2023/02/05 08:42:08;;;;;;;9.20;7.27;;;3.80;99.90;;;;;;5039638;28;20173;-86
2023/02/05 08:44:33;;;;;;;9.90;7.30;;;3.90;99.90;;;;;;5038593;28;20239;-86
2023/02/05 08:46:59;;;;;;;15.63;8.67;;;3.80;99.90;;;;;;5040216;28;20216;-85
2023/02/05 08:49:25;;;;;;;13.00;8.03;;;3.80;99.90;;;;;;5039570;28;20266;-85
2023/02/05 08:51:50;;;;;;;10.40;7.93;;;3.90;99.90;;;;;;5038148;28;20528;-84
2023/02/05 08:54:16;;;;;;;11.13;8.03;;;3.90;99.90;;;;;;5041739;28;20181;-85
2023/02/05 08:56:43;;;;;;;12.57;7.47;;;3.90;99.90;;;;;;5042116;28;20257;-85
2023/02/05 08:59:10;;;;;;;11.43;7.13;;;3.90;99.90;;;;;;5043931;28;20178;-85
2023/02/05 09:01:39;;;;;;;11.63;8.27;;;3.80;99.90;;;;;;5041595;28;20193;-85
2023/02/05 09:04:06;;;;;;;11.50;8.03;;;3.80;99.90;;;;;;5031686;28;20200;-85
2023/02/05 09:06:32;;;;;;;14.17;7.00;;;3.90;99.90;;;;;;5043839;28;20216;-84
2023/02/05 09:08:58;;;;;;;12.07;7.40;;;4.00;99.90;;;;;;5045934;28;20205;-85
2023/02/05 09:11:27;;;;;;;11.90;7.70;;;4.00;99.90;;;;;;5043487;28;20193;-85
2023/02/05 09:13:53;;;;;;;14.10;7.40;;;4.10;99.90;;;;;;5045449;28;20192;-86
2023/02/05 09:16:18;;;;;;;12.23;7.40;;;4.20;99.90;;;;;;5044406;28;20197;-83
2023/02/05 09:18:44;;;;;;;10.37;6.87;;;4.10;99.90;;;;;;5040545;28;20196;-85
2023/02/05 09:21:10;;;;;;;15.43;7.37;;;4.20;99.90;;;;;;5040291;28;20228;-84
2023/02/05 09:23:36;;;;;;;11.97;7.20;;;4.20;99.90;;;;;;5041760;28;20188;-84
2023/02/05 09:26:03;;;;;;;14.00;7.60;;;4.20;99.90;;;;;;5041429;28;20219;-86
2023/02/05 09:28:28;;;;;;;15.10;7.00;;;4.20;99.90;;;;;;5041671;28;20201;-85
2023/02/05 09:30:54;;;;;;;11.20;6.50;;;4.30;99.90;;;;;;5039937;28;20203;-85
2023/02/05 09:33:20;;;;;;;12.67;7.70;;;4.30;99.90;;;;;;5039105;28;20261;-84
2023/02/05 09:35:46;;;;;;;12.13;7.63;;;4.30;99.90;;;;;;5038059;28;20173;-85
2023/02/05 09:38:13;;;;;;;14.00;8.43;;;4.30;99.90;;;;;;5037462;28;20669;-85
2023/02/05 09:40:42;;;;;;;10.77;7.70;;;4.30;99.90;;;;;;5037120;28;20231;-85
2023/02/05 09:43:27;;;;;;;13.00;7.80;;;4.20;99.90;;;;;;5038459;28;20814;-85
2023/02/05 09:46:02;;;;;;;12.40;7.30;;;4.10;99.90;;;;;;5035432;28;20176;-85
2023/02/05 09:48:38;;;;;;;11.43;6.70;;;4.30;99.90;;;;;;5037534;28;20286;-85
2023/02/05 09:51:08;;;;;;;13.20;7.20;;;4.40;99.90;;;;;;5042182;28;20211;-86
2023/02/05 09:53:38;;;;;;;10.37;7.30;;;4.30;99.90;;;;;;5043575;28;20168;-83
2023/02/05 09:56:06;;;;;;;11.27;7.67;;;4.30;99.90;;;;;;5042926;28;20174;-85
2023/02/05 09:58:36;;;;;;;15.93;8.00;;;4.30;99.90;;;;;;5041978;28;20177;-84
2023/02/05 10:01:33;;;;;;;15.90;8.57;;;4.30;99.90;;;;;;5041419;28;20193;-86
2023/02/05 10:04:02;;;;;;;10.30;6.57;;;4.20;99.90;;;;;;5028462;28;20251;-84
2023/02/05 10:06:39;;;;;;;12.60;7.10;;;4.40;99.90;;;;;;5041799;28;20234;-85
2023/02/05 10:09:17;;;;;;;10.53;6.20;;;4.50;99.90;;;;;;5042175;28;20172;-83
2023/02/05 10:11:42;;;;;;;9.43;5.83;;;4.60;99.90;;;;;;5038102;28;20231;-83
2023/02/05 10:14:27;;;;;;;10.20;6.17;;;4.50;99.90;;;;;;5029978;28;20237;-84
2023/02/05 10:17:01;;;;;;;9.77;6.40;;;4.50;99.90;;;;;;5035004;28;20187;-85
2023/02/05 10:19:38;;;;;;;9.50;6.20;;;4.50;99.90;;;;;;5042067;28;20169;-86
2023/02/05 10:22:19;;;;;;;8.50;5.07;;;4.50;99.90;;;;;;5039103;28;20428;-84
2023/02/05 10:25:19;;;;;;;8.67;5.37;;;4.50;99.90;;;;;;5037388;28;20249;-83
2023/02/05 10:27:59;;;;;;;10.97;6.40;;;4.30;99.90;;;;;;5015696;28;20209;-87
2023/02/05 10:30:50;;;;;;;11.87;6.60;;;4.20;99.90;;;;;;5014173;28;20193;-86
2023/02/05 10:33:18;;;;;;;9.70;6.00;;;4.20;99.90;;;;;;5017070;28;20169;-86
2023/02/05 10:36:05;;;;;;;10.03;6.77;;;4.20;99.90;;;;;;5020519;28;20577;-86
2023/02/05 10:38:38;;;;;;;9.27;6.40;;;4.40;99.90;;;;;;5020714;28;20177;-86
2023/02/05 10:41:21;;;;;;;12.10;7.57;;;4.30;99.90;;;;;;5024248;28;20299;-86
2023/02/05 10:44:02;;;;;;;12.20;7.33;;;4.40;99.90;;;;;;5033815;28;20177;-87
2023/02/05 10:46:34;;;;;;;12.17;7.97;;;4.40;99.90;;;;;;5027983;28;20204;-88
2023/02/05 10:49:38;;;;;;;11.90;8.33;;;4.30;99.90;;;;;;5028873;28;20744;-87
2023/02/05 10:52:04;;;;;;;11.13;9.47;;;4.20;99.90;;;;;;5032958;28;20173;-86
2023/02/05 10:54:33;;;;;;;15.17;10.27;;;4.20;99.90;;;;;;5030065;28;20178;-88
2023/02/05 10:57:00;;;;;;;13.80;10.17;;;4.20;99.90;;;;;;5027589;28;20186;-85
2023/02/05 10:59:27;;;;;;;14.27;10.80;;;4.20;99.90;;;;;;5028706;28;20177;-85
2023/02/05 11:01:55;;;;;;;16.73;10.63;;;4.30;99.90;;;;;;5029487;28;20217;-86
2023/02/05 11:04:30;;;;;;;13.47;10.07;;;4.30;99.90;;;;;;5030508;28;20188;-87
2023/02/05 11:06:56;;;;;;;20.03;10.73;;;4.40;99.90;;;;;;5029427;28;20205;-85
2023/02/05 11:09:24;;;;;;;17.13;11.60;;;4.30;99.90;;;;;;5031843;28;20161;-87
2023/02/05 11:11:52;;;;;;;16.43;12.77;;;4.20;99.90;;;;;;5033158;28;20300;-87
2023/02/05 11:14:37;;;;;;;18.20;12.73;;;4.20;99.90;;;;;;5029973;28;20230;-85
2023/02/05 11:17:31;;;;;;;16.17;12.63;;;4.20;99.90;;;;;;5026717;28;20989;-87
2023/02/05 11:20:04;;;;;;;18.27;12.20;;;4.20;99.90;;;;;;5032889;28;20232;-85
2023/02/05 11:22:38;;;;;;;14.60;11.73;;;4.40;99.90;;;;;;5036608;28;20192;-85
2023/02/05 11:25:25;;;;;;;17.93;12.20;;;4.40;99.90;;;;;;5035175;28;20189;-85
2023/02/05 11:28:02;;;;;;;16.63;12.33;;;4.40;99.90;;;;;;5028967;28;20312;-85
2023/02/05 11:30:30;;;;;;;18.93;12.47;;;4.40;99.90;;;;;;5026532;28;20243;-87
2023/02/05 11:32:56;;;;;;;16.73;12.63;;;4.30;99.90;;;;;;5027426;28;20193;-88
2023/02/05 11:35:29;;;;;;;18.53;13.20;;;4.30;99.90;;;;;;5011598;28;20190;-88
2023/02/05 11:38:08;;;;;;;19.53;12.50;;;4.30;99.90;;;;;;5018831;28;20335;-87
2023/02/05 11:40:34;;;;;;;14.60;12.07;;;4.40;99.90;;;;;;5019030;28;20213;-86
2023/02/05 11:43:03;;;;;;;16.40;12.23;;;4.50;99.90;;;;;;5015816;28;20192;-88
2023/02/05 11:45:31;;;;;;;18.63;12.27;;;4.40;99.90;;;;;;5019967;28;20180;-88
2023/02/05 11:48:00;;;;;;;15.87;12.00;;;4.50;99.90;;;;;;5017002;28;20209;-87
2023/02/05 11:50:28;;;;;;;17.87;13.33;;;4.40;99.90;;;;;;5018960;28;20280;-88
2023/02/05 11:53:04;;;;;;;17.93;11.63;;;4.40;99.90;;;;;;5026186;28;20211;-87
2023/02/05 11:55:32;;;;;;;14.10;11.03;;;4.50;99.90;;;;;;5020807;28;20201;-86
2023/02/05 11:58:00;;;;;;;15.53;12.23;;;4.50;99.90;;;;;;5018962;28;20312;-86
2023/02/05 12:00:27;;;;;;;18.90;11.80;;;4.40;99.90;;;;;;5023688;28;20274;-88
2023/02/05 12:03:26;;;;;;;15.00;11.23;;;4.50;99.90;;;;;;5018972;28;20200;-87
2023/02/05 12:06:07;;;;;;;17.33;10.70;;;4.50;99.90;;;;;;5026155;28;20174;-87
2023/02/05 12:08:48;;;;;;;18.37;10.83;;;4.60;99.90;;;;;;5028633;28;20216;-88
2023/02/05 12:11:59;;;;;;;19.87;11.03;;;4.50;99.90;;;;;;5028377;28;20201;-85
2023/02/05 12:14:41;;;;;;;14.57;11.47;;;4.50;99.90;;;;;;5030654;28;20188;-85
2023/02/05 12:17:24;;;;;;;12.93;10.60;;;4.40;99.90;;;;;;5032790;28;20170;-84
2023/02/05 12:19:57;;;;;;;17.97;10.90;;;4.50;99.90;;;;;;5027755;28;20204;-87
2023/02/05 12:23:02;;;;;;;16.00;10.97;;;4.60;99.90;;;;;;5028586;28;20266;-86
2023/02/05 12:25:51;;;;;;;15.80;10.33;;;4.50;99.90;;;;;;5023441;28;20181;-87
2023/02/05 12:28:49;;;;;;;15.90;10.63;;;4.60;99.90;;;;;;5027744;28;20213;-85
2023/02/05 12:31:37;;;;;;;14.47;10.43;;;4.60;99.90;;;;;;4999216;28;20237;-86
2023/02/05 12:34:23;;;;;;;14.20;10.77;;;4.40;99.90;;;;;;5022685;28;20430;-88
2023/02/05 12:37:04;;;;;;;19.40;11.37;;;4.50;99.90;;;;;;5027873;28;20177;-85
2023/02/05 12:39:46;;;;;;;17.97;11.13;;;4.60;99.90;;;;;;5023699;28;20185;-86
2023/02/05 12:42:35;;;;;;;16.10;11.70;;;4.60;99.90;;;;;;5030948;28;20162;-86
2023/02/05 12:45:29;;;;;;;13.47;11.73;;;4.40;99.90;;;;;;5033496;28;20192;-85
2023/02/05 12:48:09;;;;;;;16.60;12.30;;;4.40;99.90;;;;;;5025157;28;20829;-85
2023/02/05 12:50:59;;;;;;;13.70;11.40;;;4.40;99.90;;;;;;5036832;28;20232;-87
2023/02/05 12:53:50;;;;;;;14.20;10.97;;;4.60;99.90;;;;;;5029511;28;20621;-86
2023/02/05 12:56:15;;;;;;;17.33;11.53;;;4.60;99.90;;;;;;5027522;28;20194;-87
2023/02/05 12:58:55;;;;;;;16.43;11.87;;;4.70;99.90;;;;;;5024987;28;20256;-86
2023/02/05 13:01:32;;;;;;;15.30;12.10;;;4.70;99.90;;;;;;5025340;28;20201;-85
2023/02/05 13:03:59;;;;;;;16.27;12.23;;;4.70;99.90;;;;;;5027500;28;20517;-86
2023/02/05 13:06:36;;;;;;;15.83;11.90;;;4.80;99.90;;;;;;5026963;28;20192;-87